Time;durP1;ratioP1;P1;durP2;ratioP2;P2;SDS_P1;SDS_P2;PMS_P1;PMS_P2;Temp;Humidity;BMP_temperature;BMP_pressure;BME280_temperature;BME280_humidity;BME280_pressure;Samples;Min_cycle;Max_cycle;Signal;HPM_P1;HPM_P2
2022/05/20 00:01:47;;;;;;;8.17;6.70;;;20.60;99.90;;;;;;6160312;23;20402;-81
2022/05/20 00:04:15;;;;;;;9.47;7.83;;;20.60;99.90;;;;;;6158791;23;20410;-83
2022/05/20 00:06:41;;;;;;;8.13;7.23;;;20.60;99.90;;;;;;6158844;23;20881;-82
2022/05/20 00:09:08;;;;;;;8.47;7.67;;;20.50;99.90;;;;;;6157694;23;20453;-82
2022/05/20 00:11:35;;;;;;;6.80;6.00;;;20.50;99.90;;;;;;6158394;23;20455;-81
2022/05/20 00:14:02;;;;;;;8.20;6.73;;;20.50;99.90;;;;;;6158295;23;20411;-81
2022/05/20 00:16:29;;;;;;;8.13;7.33;;;20.50;99.90;;;;;;6159227;23;20401;-81
2022/05/20 00:18:56;;;;;;;8.73;6.90;;;20.40;99.90;;;;;;6161905;23;20426;-81
2022/05/20 00:21:24;;;;;;;9.60;7.70;;;20.40;99.90;;;;;;6161092;23;20484;-82
2022/05/20 00:23:51;;;;;;;9.70;8.70;;;20.40;99.90;;;;;;6160660;23;20415;-82
2022/05/20 00:26:18;;;;;;;8.07;7.20;;;20.40;99.90;;;;;;6159933;23;20424;-82
2022/05/20 00:28:48;;;;;;;8.10;7.30;;;20.40;99.90;;;;;;6159584;23;20445;-81
2022/05/20 00:31:16;;;;;;;8.80;7.90;;;20.30;99.90;;;;;;6160189;23;20460;-82
2022/05/20 00:33:43;;;;;;;8.90;8.00;;;20.40;99.90;;;;;;6160103;23;20418;-81
2022/05/20 00:36:10;;;;;;;7.60;6.87;;;20.20;99.90;;;;;;6164683;23;20413;-82
2022/05/20 00:38:38;;;;;;;7.60;6.90;;;20.10;99.90;;;;;;6164184;23;20438;-82
2022/05/20 00:41:05;;;;;;;7.60;6.60;;;20.00;99.90;;;;;;6161331;23;20425;-82
2022/05/20 00:43:37;;;;;;;8.23;7.03;;;19.80;99.90;;;;;;6161206;23;20407;-82
2022/05/20 00:46:06;;;;;;;8.40;7.60;;;19.80;99.90;;;;;;6160836;23;20871;-82
2022/05/20 00:48:33;;;;;;;6.60;6.00;;;19.70;99.90;;;;;;6160143;23;20524;-81
2022/05/20 00:51:04;;;;;;;10.30;6.63;;;19.70;99.90;;;;;;6160834;23;20410;-82
2022/05/20 00:53:36;;;;;;;8.13;7.30;;;19.70;99.90;;;;;;6169815;23;20389;-81
2022/05/20 00:56:06;;;;;;;7.50;6.70;;;19.90;99.90;;;;;;6175863;23;20397;-81
2022/05/20 00:58:34;;;;;;;7.70;7.00;;;19.90;99.90;;;;;;6164465;23;20520;-82
2022/05/20 01:01:03;;;;;;;7.53;6.93;;;19.90;99.90;;;;;;6164189;23;20883;-82
2022/05/20 01:03:31;;;;;;;8.10;7.40;;;19.90;99.90;;;;;;6166948;23;20420;-82
2022/05/20 01:05:58;;;;;;;8.53;7.70;;;19.90;99.90;;;;;;6165921;23;20421;-82
2022/05/20 01:08:27;;;;;;;10.23;8.27;;;19.80;99.90;;;;;;6166617;23;20460;-82
2022/05/20 01:10:54;;;;;;;9.40;8.30;;;19.90;99.90;;;;;;6164220;23;20922;-83
2022/05/20 01:13:26;;;;;;;9.53;8.30;;;19.80;99.90;;;;;;6164211;23;20424;-83
2022/05/20 01:15:54;;;;;;;10.43;8.63;;;19.80;99.90;;;;;;6164053;23;20394;-82
2022/05/20 01:18:20;;;;;;;8.80;7.90;;;19.70;99.90;;;;;;6163562;23;20428;-82
2022/05/20 01:20:50;;;;;;;9.03;8.00;;;19.70;99.90;;;;;;6162906;23;20410;-82
2022/05/20 01:23:20;;;;;;;14.50;8.60;;;19.80;99.90;;;;;;6163103;23;20421;-83
2022/05/20 01:25:48;;;;;;;9.40;7.80;;;19.80;99.90;;;;;;6161930;23;20414;-83
2022/05/20 01:28:16;;;;;;;12.20;8.70;;;19.80;99.90;;;;;;6163611;23;20452;-83
2022/05/20 01:30:52;;;;;;;11.73;9.47;;;19.90;99.90;;;;;;6165321;23;20744;-83
2022/05/20 01:33:23;;;;;;;9.60;8.77;;;19.90;99.90;;;;;;6162902;23;20378;-83
2022/05/20 01:35:51;;;;;;;11.50;9.87;;;19.90;99.90;;;;;;6162732;23;20401;-82
2022/05/20 01:38:19;;;;;;;12.43;11.13;;;19.90;99.90;;;;;;6163175;23;20423;-83
2022/05/20 01:40:49;;;;;;;11.03;8.53;;;19.90;99.90;;;;;;6163615;23;20408;-81
2022/05/20 01:43:33;;;;;;;12.40;10.20;;;19.90;99.90;;;;;;6163282;23;20409;-81
2022/05/20 01:46:09;;;;;;;12.00;10.80;;;19.90;99.90;;;;;;6162811;23;20396;-83
2022/05/20 01:48:40;;;;;;;10.43;9.40;;;19.90;99.90;;;;;;6162404;23;20644;-83
2022/05/20 01:51:11;;;;;;;13.13;11.60;;;19.80;99.90;;;;;;6162610;23;20409;-83
2022/05/20 01:53:43;;;;;;;13.67;11.00;;;19.80;99.90;;;;;;6162599;23;20416;-83
2022/05/20 01:56:13;;;;;;;10.37;9.37;;;19.70;99.90;;;;;;6172778;23;20392;-81
2022/05/20 01:58:46;;;;;;;15.23;9.87;;;19.70;99.90;;;;;;6181794;23;20428;-81
2022/05/20 02:01:20;;;;;;;12.50;10.40;;;19.60;99.90;;;;;;6167994;23;20379;-82
2022/05/20 02:03:52;;;;;;;14.37;10.97;;;19.70;99.90;;;;;;6182167;23;20390;-81
2022/05/20 02:06:25;;;;;;;11.97;10.23;;;19.70;99.90;;;;;;6166377;23;20385;-82
2022/05/20 02:08:58;;;;;;;12.53;10.27;;;19.60;99.90;;;;;;6163065;23;20445;-83
2022/05/20 02:11:30;;;;;;;10.47;9.40;;;19.60;99.90;;;;;;6166214;23;20394;-82
2022/05/20 02:14:01;;;;;;;11.83;10.73;;;19.60;99.90;;;;;;6162824;23;20422;-81
2022/05/20 02:16:32;;;;;;;12.10;10.90;;;19.60;99.90;;;;;;6164235;23;20394;-83
2022/05/20 02:19:04;;;;;;;12.17;10.23;;;19.50;99.90;;;;;;6162522;23;20433;-82
2022/05/20 02:21:33;;;;;;;12.57;11.30;;;19.50;99.90;;;;;;6162849;23;20393;-82
2022/05/20 02:24:06;;;;;;;11.83;10.73;;;19.40;99.90;;;;;;6162221;23;20413;-83
2022/05/20 02:26:41;;;;;;;11.37;10.00;;;19.40;99.90;;;;;;6161764;23;20381;-83
2022/05/20 02:29:13;;;;;;;12.27;11.17;;;19.40;99.90;;;;;;6161199;23;20471;-82
2022/05/20 02:31:43;;;;;;;11.20;10.10;;;19.40;99.90;;;;;;6162230;23;20393;-82
2022/05/20 02:34:10;;;;;;;10.50;9.60;;;19.40;99.90;;;;;;6178363;23;20402;-81
2022/05/20 02:36:36;;;;;;;12.67;11.27;;;19.40;99.90;;;;;;6172283;23;20412;-83
2022/05/20 02:39:14;;;;;;;11.13;10.00;;;19.40;99.90;;;;;;6161567;23;20429;-82
2022/05/20 02:41:43;;;;;;;11.93;10.73;;;19.30;99.90;;;;;;6163651;23;20848;-82
2022/05/20 02:44:09;;;;;;;12.57;11.30;;;19.30;99.90;;;;;;6161568;23;20424;-82
2022/05/20 02:46:37;;;;;;;13.87;11.10;;;19.30;99.90;;;;;;6161918;23;20409;-82
2022/05/20 02:49:04;;;;;;;15.13;11.83;;;19.30;99.90;;;;;;6161247;23;20438;-82
2022/05/20 02:51:31;;;;;;;12.17;11.03;;;19.30;99.90;;;;;;6165958;23;20388;-81
2022/05/20 02:53:58;;;;;;;17.17;10.33;;;19.40;99.90;;;;;;6168074;23;20907;-82
2022/05/20 02:56:27;;;;;;;17.43;10.90;;;19.30;99.90;;;;;;6164118;23;20420;-82
2022/05/20 03:04:23;;;;;;;12.73;11.47;;;19.30;99.90;;;;;;6162307;23;20427;-82
2022/05/20 03:06:52;;;;;;;14.60;11.70;;;19.30;99.90;;;;;;6162474;23;20880;-82
2022/05/20 03:09:20;;;;;;;11.90;10.80;;;19.30;99.90;;;;;;6165543;23;20425;-81
2022/05/20 03:11:49;;;;;;;13.50;10.80;;;19.20;99.90;;;;;;6162901;23;20400;-84
2022/05/20 03:14:18;;;;;;;12.50;11.23;;;19.20;99.90;;;;;;6162203;23;20421;-82
2022/05/20 03:16:45;;;;;;;15.80;13.17;;;19.20;99.90;;;;;;6161557;23;20780;-83
2022/05/20 03:19:13;;;;;;;12.90;11.80;;;19.10;99.90;;;;;;6160962;23;20441;-83
2022/05/20 03:21:42;;;;;;;11.90;10.70;;;19.20;99.90;;;;;;6170524;23;20420;-81
2022/05/20 03:24:10;;;;;;;14.67;11.67;;;19.20;99.90;;;;;;6176039;23;20484;-83
2022/05/20 03:26:37;;;;;;;13.53;12.23;;;19.10;99.90;;;;;;6161408;23;20416;-83
2022/05/20 03:29:06;;;;;;;14.37;12.93;;;19.10;99.90;;;;;;6161478;23;20432;-82
2022/05/20 03:31:34;;;;;;;13.20;10.80;;;19.10;99.90;;;;;;6160952;23;20934;-82
2022/05/20 03:34:05;;;;;;;14.47;13.27;;;19.00;99.90;;;;;;6165698;23;20419;-81
2022/05/20 03:36:33;;;;;;;12.87;11.57;;;19.00;99.90;;;;;;6173012;23;20388;-82
2022/05/20 03:38:59;;;;;;;14.40;12.70;;;19.10;99.90;;;;;;6165178;23;20441;-83
2022/05/20 03:41:26;;;;;;;13.50;12.07;;;19.20;99.90;;;;;;6163553;23;20409;-83
2022/05/20 03:43:53;;;;;;;14.30;12.83;;;19.10;99.90;;;;;;6165231;23;20409;-83
2022/05/20 03:46:21;;;;;;;14.23;11.17;;;19.20;99.90;;;;;;6164013;23;20389;-82
2022/05/20 03:48:47;;;;;;;12.70;11.30;;;19.30;99.90;;;;;;6161345;23;20435;-83
2022/05/20 03:51:15;;;;;;;13.07;11.77;;;19.30;99.90;;;;;;6161703;23;20407;-83
2022/05/20 03:53:42;;;;;;;13.20;11.77;;;19.30;99.90;;;;;;6161388;23;20418;-83
2022/05/20 03:56:09;;;;;;;12.70;11.40;;;19.30;99.90;;;;;;6162473;23;20409;-83
2022/05/20 03:58:37;;;;;;;15.00;12.23;;;19.40;99.90;;;;;;6162763;23;20433;-82
2022/05/20 04:03:58;;;;;;;15.97;12.77;;;19.50;99.90;;;;;;6133801;23;20451;-82
2022/05/20 04:06:25;;;;;;;14.30;12.37;;;19.50;99.90;;;;;;6162704;23;20436;-83
2022/05/20 04:08:52;;;;;;;13.10;11.70;;;19.50;99.90;;;;;;6160974;23;20425;-82
2022/05/20 04:11:18;;;;;;;13.53;12.23;;;19.60;99.90;;;;;;6174134;23;20394;-81
2022/05/20 04:13:45;;;;;;;14.57;13.07;;;19.60;99.90;;;;;;6181574;23;20408;-81
2022/05/20 04:16:14;;;;;;;14.90;13.40;;;19.70;99.90;;;;;;6181739;23;20417;-81
2022/05/20 04:18:41;;;;;;;14.57;12.43;;;19.70;99.90;;;;;;6181579;23;20426;-80
2022/05/20 04:21:10;;;;;;;13.70;11.80;;;19.70;99.90;;;;;;6182334;23;20454;-80
2022/05/20 04:26:11;;;;;;;13.47;12.17;;;19.80;99.90;;;;;;6130846;23;20415;-86
2022/05/20 04:28:38;;;;;;;14.90;12.30;;;19.70;99.90;;;;;;6130952;23;20409;-86
2022/05/20 04:31:07;;;;;;;13.67;12.30;;;19.70;99.90;;;;;;6133518;23;20405;-86
2022/05/20 04:33:35;;;;;;;16.03;14.03;;;19.70;99.90;;;;;;6134141;23;20402;-86
2022/05/20 04:36:02;;;;;;;15.40;12.60;;;19.60;99.90;;;;;;6132661;23;20406;-86
2022/05/20 04:38:31;;;;;;;18.97;13.10;;;19.50;99.90;;;;;;6131644;23;20409;-86
2022/05/20 04:49:11;;;;;;;13.63;12.23;;;19.70;99.90;;;;;;6152170;23;20398;-86
2022/05/20 04:51:39;;;;;;;13.10;11.80;;;19.80;99.90;;;;;;6141586;23;20411;-86
2022/05/20 04:56:52;;;;;;;15.40;13.40;;;19.70;99.90;;;;;;6137395;23;20385;-87
2022/05/20 04:59:20;;;;;;;14.57;13.00;;;19.70;99.90;;;;;;6134303;23;20453;-86
2022/05/20 05:01:48;;;;;;;14.77;12.00;;;19.80;99.90;;;;;;6136745;23;20920;-86
2022/05/20 05:04:15;;;;;;;21.33;12.40;;;19.90;99.90;;;;;;6147478;23;20438;-87
2022/05/20 05:06:42;;;;;;;13.70;12.23;;;20.00;99.90;;;;;;6137450;23;20403;-86
2022/05/20 05:09:10;;;;;;;14.30;12.37;;;20.20;99.90;;;;;;6126340;23;20411;-86
2022/05/20 05:11:40;;;;;;;12.63;11.10;;;20.60;99.90;;;;;;6131186;23;20412;-87
2022/05/20 05:14:15;;;;;;;12.47;11.30;;;21.00;99.90;;;;;;6151361;23;20448;-86
2022/05/20 05:16:42;;;;;;;17.17;12.60;;;21.40;99.90;;;;;;6151163;23;20416;-85
2022/05/20 05:19:10;;;;;;;16.60;11.80;;;21.80;99.90;;;;;;6149542;23;20406;-87
2022/05/20 05:21:37;;;;;;;13.40;11.43;;;22.00;99.90;;;;;;6144379;23;20413;-84
2022/05/20 05:24:05;;;;;;;14.53;11.47;;;22.20;99.90;;;;;;6143124;23;20425;-83
2022/05/20 05:26:35;;;;;;;11.57;10.50;;;22.40;99.90;;;;;;6142247;23;20395;-86
2022/05/20 05:29:03;;;;;;;13.50;10.50;;;22.70;99.90;;;;;;6137704;23;20478;-86
2022/05/20 05:31:29;;;;;;;14.37;11.33;;;23.10;99.90;;;;;;6131569;23;20411;-86
2022/05/20 05:33:56;;;;;;;13.27;10.87;;;23.30;99.90;;;;;;6130462;23;20434;-86
2022/05/20 05:36:23;;;;;;;15.00;10.77;;;23.40;99.90;;;;;;6140258;23;20386;-87
2022/05/20 05:38:55;;;;;;;12.57;11.23;;;23.50;99.90;;;;;;6148585;23;20414;-88
2022/05/20 05:41:22;;;;;;;10.97;9.47;;;23.80;99.90;;;;;;6149267;23;20426;-86
2022/05/20 05:43:50;;;;;;;10.87;9.70;;;23.80;99.90;;;;;;6134116;23;20392;-85
2022/05/20 05:46:17;;;;;;;11.27;10.20;;;23.80;99.90;;;;;;6134655;23;20410;-84
2022/05/20 05:48:44;;;;;;;15.87;10.97;;;23.80;99.90;;;;;;6130076;23;20455;-86
2022/05/20 05:51:10;;;;;;;10.63;9.30;;;23.80;99.90;;;;;;6129965;23;20427;-84
2022/05/20 05:53:37;;;;;;;10.00;9.20;;;24.00;99.90;;;;;;6129538;23;20396;-84
2022/05/20 05:56:06;;;;;;;11.77;9.60;;;24.30;99.90;;;;;;6131721;23;20408;-85
2022/05/20 05:58:34;;;;;;;9.30;8.33;;;24.60;99.40;;;;;;6129530;23;20427;-85
2022/05/20 06:01:04;;;;;;;11.73;8.27;;;24.70;98.80;;;;;;6147154;23;20470;-84
2022/05/20 06:03:31;;;;;;;8.33;7.63;;;24.80;97.80;;;;;;6145102;23;20408;-84
2022/05/20 06:05:57;;;;;;;10.20;8.10;;;24.80;97.50;;;;;;6140146;23;20411;-85
2022/05/20 06:08:24;;;;;;;10.13;7.80;;;25.00;97.80;;;;;;6139361;23;20713;-84
2022/05/20 06:10:51;;;;;;;11.53;7.73;;;25.30;96.80;;;;;;6138333;23;20404;-85
2022/05/20 06:13:24;;;;;;;12.57;7.80;;;25.60;96.30;;;;;;6139848;23;20448;-85
2022/05/20 06:15:51;;;;;;;11.33;8.03;;;25.80;95.50;;;;;;6144180;23;20431;-87
2022/05/20 06:18:19;;;;;;;10.47;7.80;;;26.00;94.80;;;;;;6139048;23;20406;-88
2022/05/20 06:20:46;;;;;;;8.10;7.30;;;26.40;94.70;;;;;;6126075;23;20975;-89
2022/05/20 06:23:13;;;;;;;9.83;7.77;;;26.50;93.50;;;;;;6126758;23;20495;-88
2022/05/20 06:25:40;;;;;;;10.33;7.60;;;26.60;93.30;;;;;;6127057;23;20439;-89
2022/05/20 06:28:10;;;;;;;10.50;8.50;;;26.80;93.10;;;;;;6125981;23;20439;-87
2022/05/20 06:30:36;;;;;;;12.07;8.00;;;27.20;92.20;;;;;;6125622;23;20411;-87
2022/05/20 06:33:04;;;;;;;8.40;7.70;;;27.60;91.80;;;;;;6126028;23;20392;-86
2022/05/20 06:41:02;;;;;;;10.90;7.63;;;28.10;88.80;;;;;;6124800;23;20526;-86
2022/05/20 06:43:29;;;;;;;15.07;8.43;;;28.50;88.40;;;;;;6125010;23;20391;-87
2022/05/20 06:45:58;;;;;;;9.13;8.20;;;29.00;86.50;;;;;;6126661;23;20415;-86
2022/05/20 06:48:24;;;;;;;9.53;8.63;;;29.20;85.00;;;;;;6126761;23;20715;-87
2022/05/20 06:50:52;;;;;;;8.17;7.30;;;29.80;83.40;;;;;;6129143;23;20411;-87
2022/05/20 06:53:19;;;;;;;8.13;7.20;;;29.70;81.70;;;;;;6127792;23;20399;-86
2022/05/20 06:55:46;;;;;;;8.53;7.70;;;30.00;81.30;;;;;;6125007;23;20960;-86
2022/05/20 06:58:13;;;;;;;13.00;7.73;;;30.60;79.40;;;;;;6127584;23;20388;-87
2022/05/20 07:00:39;;;;;;;8.63;7.83;;;30.40;79.10;;;;;;6127734;23;20759;-85
2022/05/20 07:03:06;;;;;;;11.03;8.70;;;30.50;78.30;;;;;;6135618;23;20411;-87
2022/05/20 07:05:34;;;;;;;12.10;7.47;;;31.00;78.10;;;;;;6148007;23;20498;-86
2022/05/20 07:08:02;;;;;;;9.37;7.43;;;31.50;76.50;;;;;;6130924;23;20395;-86
2022/05/20 07:10:28;;;;;;;13.43;8.70;;;32.10;75.40;;;;;;6128706;23;20412;-86
2022/05/20 07:12:55;;;;;;;9.70;8.70;;;32.80;73.80;;;;;;6128067;23;20400;-87
2022/05/20 07:15:22;;;;;;;10.97;7.37;;;33.00;70.30;;;;;;6127566;23;20428;-86
2022/05/20 07:17:49;;;;;;;10.17;8.30;;;32.90;69.10;;;;;;6127768;23;20415;-86
2022/05/20 07:20:15;;;;;;;9.27;8.37;;;32.80;69.60;;;;;;6130375;23;20470;-87
2022/05/20 07:22:42;;;;;;;8.23;7.60;;;32.70;70.00;;;;;;6127954;23;20403;-85
2022/05/20 07:25:21;;;;;;;10.67;8.60;;;32.50;69.20;;;;;;6139944;23;20443;-88
2022/05/20 07:27:48;;;;;;;8.80;7.00;;;32.40;68.50;;;;;;6139687;23;20489;-84
2022/05/20 07:30:16;;;;;;;10.50;7.93;;;32.20;70.10;;;;;;6136455;23;20404;-84
2022/05/20 07:32:43;;;;;;;14.40;8.10;;;32.00;69.30;;;;;;6142096;23;20412;-85
2022/05/20 07:35:10;;;;;;;8.20;7.20;;;32.10;70.00;;;;;;6134978;23;20435;-85
2022/05/20 07:37:37;;;;;;;11.10;7.03;;;32.70;68.30;;;;;;6131768;23;20842;-85
2022/05/20 07:40:05;;;;;;;7.93;7.00;;;33.30;66.90;;;;;;6136410;23;20443;-85
2022/05/20 07:42:33;;;;;;;12.70;7.37;;;33.70;64.10;;;;;;6145153;23;20408;-84
2022/05/20 07:45:03;;;;;;;9.30;7.23;;;33.80;62.20;;;;;;6134253;23;20439;-85
2022/05/20 07:47:31;;;;;;;7.93;6.40;;;34.00;62.00;;;;;;6139378;23;20379;-84
2022/05/20 07:49:58;;;;;;;7.63;6.80;;;33.90;60.40;;;;;;6147980;23;20410;-85
2022/05/20 07:55:26;;;;;;;12.17;7.17;;;33.40;62.60;;;;;;6049838;23;20415;-84
2022/05/20 07:57:55;;;;;;;7.23;6.50;;;34.10;61.80;;;;;;6043114;23;20430;-84
2022/05/20 08:00:23;;;;;;;8.13;6.47;;;34.90;60.70;;;;;;6077988;23;20953;-84
2022/05/20 08:02:53;;;;;;;8.20;7.03;;;35.50;58.30;;;;;;6126957;23;20416;-83
2022/05/20 08:05:21;;;;;;;7.80;6.43;;;35.50;57.50;;;;;;6128314;23;20415;-84
2022/05/20 08:07:48;;;;;;;6.00;5.30;;;35.10;56.90;;;;;;6127351;23;20403;-83
2022/05/20 08:10:17;;;;;;;7.03;6.43;;;35.90;55.40;;;;;;6126741;23;20459;-83
2022/05/20 08:12:44;;;;;;;10.10;6.83;;;36.30;54.80;;;;;;6126195;23;20419;-84
2022/05/20 08:15:13;;;;;;;7.43;5.67;;;37.30;54.90;;;;;;6126708;23;20423;-84
2022/05/20 08:17:41;;;;;;;8.73;5.80;;;37.40;53.00;;;;;;6126247;23;20463;-84
2022/05/20 08:20:11;;;;;;;14.37;6.73;;;38.00;53.00;;;;;;6127074;23;20415;-84
2022/05/20 08:22:38;;;;;;;7.70;6.10;;;38.20;52.40;;;;;;6126620;23;20399;-83
2022/05/20 08:25:06;;;;;;;8.83;6.33;;;38.40;50.80;;;;;;6126223;23;20786;-83
2022/05/20 08:27:33;;;;;;;6.70;5.90;;;37.80;50.60;;;;;;6125873;23;20412;-84
2022/05/20 08:30:07;;;;;;;7.20;6.50;;;37.50;51.50;;;;;;6126463;23;20411;-84
2022/05/20 08:32:35;;;;;;;7.40;5.43;;;38.40;51.40;;;;;;6126162;23;20392;-84
2022/05/20 08:35:04;;;;;;;8.03;5.60;;;38.20;50.20;;;;;;6126451;23;20498;-84
2022/05/20 08:37:33;;;;;;;7.03;5.40;;;38.70;49.00;;;;;;6126812;23;20404;-84
2022/05/20 08:40:00;;;;;;;5.35;4.85;;;38.70;48.00;;;;;;6133441;23;20422;-84
2022/05/20 08:42:30;;;;;;;5.10;4.60;;;38.70;47.50;;;;;;6138380;23;20448;-83
2022/05/20 08:44:58;;;;;;;5.17;4.67;;;37.90;47.20;;;;;;6129628;23;20430;-83
2022/05/20 08:47:30;;;;;;;4.77;4.17;;;38.20;49.40;;;;;;6128550;23;20908;-83
2022/05/20 08:50:00;;;;;;;4.77;4.37;;;38.80;47.00;;;;;;6128391;23;20399;-84
2022/05/20 08:52:28;;;;;;;6.30;4.80;;;38.70;45.80;;;;;;6126926;23;20384;-84
2022/05/20 08:54:55;;;;;;;5.40;4.57;;;39.30;47.00;;;;;;6126610;23;20424;-84
2022/05/20 08:57:27;;;;;;;5.43;4.93;;;39.80;45.10;;;;;;6126734;23;20412;-83
2022/05/20 08:59:54;;;;;;;5.40;5.00;;;38.50;46.20;;;;;;6142127;23;20388;-83
2022/05/20 09:02:21;;;;;;;5.50;5.00;;;38.80;46.20;;;;;;6148908;23;20427;-83
2022/05/20 09:04:48;;;;;;;4.93;4.53;;;38.70;45.60;;;;;;6149005;23;20438;-84
2022/05/20 09:07:18;;;;;;;5.20;4.70;;;37.30;44.80;;;;;;6147038;23;20396;-83
2022/05/20 09:09:48;;;;;;;5.17;4.67;;;37.70;45.50;;;;;;6132644;23;20403;-84
2022/05/20 09:12:31;;;;;;;5.23;4.67;;;38.00;46.00;;;;;;6133041;23;20395;-84
2022/05/20 09:17:51;;;;;;;5.77;5.00;;;36.90;44.00;;;;;;6136739;23;20391;-83
2022/05/20 09:20:20;;;;;;;7.37;4.63;;;35.70;44.50;;;;;;6133127;23;20451;-83
2022/05/20 09:22:58;;;;;;;7.90;5.30;;;36.80;45.60;;;;;;6129356;23;20724;-83
2022/05/20 09:25:27;;;;;;;6.03;4.73;;;36.50;47.90;;;;;;6130284;23;20443;-83
2022/05/20 09:28:13;;;;;;;6.60;5.80;;;37.00;46.30;;;;;;6130286;23;20711;-83
2022/05/20 09:30:41;;;;;;;5.40;4.90;;;35.80;44.70;;;;;;6132981;23;20419;-84
2022/05/20 09:33:15;;;;;;;6.57;4.53;;;35.20;47.30;;;;;;6129831;23;20429;-83
2022/05/20 09:35:47;;;;;;;9.30;6.10;;;35.90;45.80;;;;;;6128448;23;20443;-83
2022/05/20 09:38:39;;;;;;;7.63;5.00;;;35.70;45.20;;;;;;6140183;23;20415;-82
2022/05/20 09:41:15;;;;;;;7.80;4.70;;;35.20;45.90;;;;;;6141732;23;20434;-83
2022/05/20 09:43:44;;;;;;;5.83;4.83;;;35.10;47.10;;;;;;6136345;23;20391;-83
2022/05/20 09:46:31;;;;;;;6.13;5.30;;;35.70;45.70;;;;;;6146997;23;20414;-84
2022/05/20 09:49:04;;;;;;;5.20;4.70;;;35.00;45.80;;;;;;6151813;23;20407;-84
2022/05/20 09:51:39;;;;;;;5.17;4.77;;;35.20;46.90;;;;;;6151274;23;20381;-84
2022/05/20 09:54:21;;;;;;;4.77;4.37;;;36.30;46.00;;;;;;6150071;23;20929;-83
2022/05/20 09:56:59;;;;;;;8.23;4.47;;;36.70;44.20;;;;;;6134670;23;20869;-84
2022/05/20 09:59:37;;;;;;;7.33;5.97;;;36.40;43.00;;;;;;6131393;23;20431;-84
2022/05/20 10:02:10;;;;;;;6.10;5.50;;;36.20;44.40;;;;;;6130893;23;20430;-84
2022/05/20 10:04:46;;;;;;;6.87;5.17;;;37.60;44.10;;;;;;6131480;23;20427;-84
2022/05/20 10:07:20;;;;;;;7.40;4.77;;;37.40;42.90;;;;;;6129957;23;20404;-84
2022/05/20 10:09:54;;;;;;;4.80;4.37;;;37.50;42.50;;;;;;6129975;23;20404;-83
2022/05/20 10:12:27;;;;;;;5.57;5.07;;;37.10;42.90;;;;;;6132529;23;20466;-83
2022/05/20 10:14:57;;;;;;;6.40;5.30;;;38.00;42.60;;;;;;6131851;23;20455;-84
2022/05/20 10:17:40;;;;;;;5.90;5.37;;;38.00;42.00;;;;;;6130403;23;20388;-84
2022/05/20 10:20:12;;;;;;;5.10;4.60;;;38.10;41.80;;;;;;6130371;23;20387;-83
2022/05/20 10:22:48;;;;;;;6.23;5.50;;;38.50;41.80;;;;;;6131172;23;20447;-83
2022/05/20 10:25:24;;;;;;;5.50;4.80;;;38.00;41.50;;;;;;6131810;23;20438;-86
2022/05/20 10:27:59;;;;;;;4.90;4.23;;;38.80;41.50;;;;;;6143381;23;20395;-88
2022/05/20 10:33:23;;;;;;;4.73;4.33;;;41.10;39.60;;;;;;6132216;23;20400;-86
2022/05/20 10:36:15;;;;;;;5.93;5.33;;;40.80;38.90;;;;;;6129545;23;20426;-86
2022/05/20 10:38:59;;;;;;;8.90;4.87;;;39.30;39.30;;;;;;6124140;23;20412;-86
2022/05/20 10:41:48;;;;;;;5.30;4.70;;;38.50;39.40;;;;;;6129815;23;20423;-86
2022/05/20 10:50:17;;;;;;;6.43;4.33;;;37.80;41.20;;;;;;6134751;23;20395;-86
2022/05/20 10:53:05;;;;;;;8.17;4.97;;;36.50;40.80;;;;;;6136473;23;20384;-86
2022/05/20 10:55:43;;;;;;;6.00;4.20;;;35.80;40.20;;;;;;6132299;23;20462;-86
2022/05/20 10:58:49;;;;;;;5.23;4.57;;;36.40;40.00;;;;;;6134958;23;20431;-86
2022/05/20 11:01:22;;;;;;;7.20;4.40;;;37.10;40.40;;;;;;6110632;23;20479;-85
2022/05/20 11:04:11;;;;;;;4.50;4.00;;;37.50;38.50;;;;;;6128823;23;20854;-85
2022/05/20 11:07:14;;;;;;;5.20;4.70;;;37.90;39.40;;;;;;6148463;23;20365;-86
2022/05/20 11:09:50;;;;;;;6.23;4.50;;;39.90;38.30;;;;;;6133054;23;20403;-86
2022/05/20 11:12:28;;;;;;;6.93;5.10;;;41.00;36.50;;;;;;6131292;23;20786;-86
2022/05/20 11:15:12;;;;;;;8.63;3.90;;;40.50;35.30;;;;;;6134896;23;20431;-85
2022/05/20 11:18:02;;;;;;;7.83;4.37;;;40.30;35.20;;;;;;6132492;23;20392;-85
2022/05/20 11:20:51;;;;;;;5.30;4.17;;;39.60;35.10;;;;;;6129176;23;20395;-85
2022/05/20 11:23:54;;;;;;;8.10;4.73;;;38.40;35.40;;;;;;6139573;23;20398;-86
2022/05/20 11:26:41;;;;;;;5.37;3.97;;;38.50;36.00;;;;;;6129612;23;20428;-87
2022/05/20 11:29:37;;;;;;;5.50;5.00;;;38.80;36.30;;;;;;6114032;23;20447;-87
2022/05/20 11:32:07;;;;;;;5.43;4.70;;;39.70;35.60;;;;;;6123548;23;20435;-86
2022/05/20 11:35:10;;;;;;;5.17;4.67;;;41.60;35.10;;;;;;6128391;23;20428;-87
2022/05/20 11:38:14;;;;;;;5.17;4.50;;;41.00;34.30;;;;;;6124810;23;20447;-87
2022/05/20 11:40:59;;;;;;;6.50;4.00;;;41.30;35.40;;;;;;6127106;23;20391;-87
2022/05/20 11:43:54;;;;;;;5.57;4.43;;;39.30;34.80;;;;;;6127846;23;20406;-87
2022/05/20 11:46:31;;;;;;;6.17;3.93;;;38.90;35.70;;;;;;6126763;23;20486;-87
2022/05/20 11:49:23;;;;;;;4.83;4.30;;;40.00;34.00;;;;;;6137967;23;20376;-87
2022/05/20 11:52:15;;;;;;;5.83;5.03;;;40.40;33.90;;;;;;6144508;23;20388;-87
2022/05/20 11:54:49;;;;;;;7.07;4.23;;;42.50;34.30;;;;;;6134925;23;20438;-87
2022/05/20 11:57:20;;;;;;;7.03;4.50;;;41.00;32.80;;;;;;6132464;23;20392;-87
2022/05/20 11:59:57;;;;;;;5.70;4.50;;;39.60;33.90;;;;;;6130714;23;20392;-90
2022/05/20 12:02:26;;;;;;;4.60;4.20;;;41.50;34.90;;;;;;6130863;23;20608;-90
2022/05/20 12:04:54;;;;;;;5.97;3.83;;;42.60;33.00;;;;;;6129085;23;20921;-91
2022/05/20 12:07:24;;;;;;;6.80;5.00;;;42.60;32.50;;;;;;6128991;23;20411;-91
2022/05/20 12:09:53;;;;;;;7.83;4.90;;;41.00;32.80;;;;;;6128760;23;20537;-90
2022/05/20 12:12:25;;;;;;;7.53;4.40;;;39.20;35.10;;;;;;6129536;23;20440;-90
2022/05/20 12:15:09;;;;;;;8.47;4.60;;;38.50;36.50;;;;;;6102866;23;20427;-90
2022/05/20 12:17:37;;;;;;;5.70;4.90;;;38.40;36.20;;;;;;6116036;23;20408;-90
2022/05/20 12:26:23;;;;;;;6.13;3.90;;;39.60;35.90;;;;;;6134332;23;20450;-90
2022/05/20 12:28:51;;;;;;;6.50;4.53;;;39.10;35.50;;;;;;6129154;23;20392;-90
2022/05/20 12:31:39;;;;;;;4.83;4.00;;;38.50;35.30;;;;;;6126474;23;20403;-92
2022/05/20 12:34:09;;;;;;;5.93;4.67;;;39.40;36.40;;;;;;6131104;23;20768;-89
2022/05/20 12:36:39;;;;;;;7.57;4.97;;;38.80;35.60;;;;;;6133064;23;20427;-89
2022/05/20 12:39:41;;;;;;;4.67;4.13;;;38.60;36.40;;;;;;6128156;23;20420;-90
2022/05/20 12:42:22;;;;;;;5.00;4.50;;;38.90;35.40;;;;;;6125253;23;20414;-91
2022/05/20 12:44:49;;;;;;;5.03;4.30;;;37.90;37.10;;;;;;6126603;23;20433;-87
2022/05/20 12:47:26;;;;;;;7.30;4.87;;;38.30;35.70;;;;;;6131603;23;20416;-87
2022/05/20 12:50:01;;;;;;;6.27;3.97;;;37.90;36.10;;;;;;6137691;23;20453;-87
2022/05/20 12:52:32;;;;;;;7.93;4.77;;;37.80;35.30;;;;;;6128761;23;20769;-87
2022/05/20 12:55:11;;;;;;;6.43;4.00;;;37.40;36.20;;;;;;6129162;23;20458;-87
2022/05/20 12:57:38;;;;;;;6.63;3.93;;;37.70;36.30;;;;;;6129634;23;20446;-86
2022/05/20 13:00:12;;;;;;;4.10;3.70;;;37.30;34.80;;;;;;6131918;23;20418;-86
2022/05/20 13:02:41;;;;;;;11.00;4.47;;;37.90;34.70;;;;;;6128706;23;20392;-87
2022/05/20 13:05:18;;;;;;;5.57;4.90;;;38.40;34.40;;;;;;6133760;23;20462;-86
2022/05/20 13:07:47;;;;;;;4.17;3.77;;;37.30;33.60;;;;;;6154690;23;20382;-86
2022/05/20 13:10:30;;;;;;;9.80;4.77;;;37.70;35.30;;;;;;6150908;23;20404;-86
2022/05/20 13:13:02;;;;;;;6.17;3.83;;;37.90;34.00;;;;;;6129401;23;20463;-89
2022/05/20 13:15:29;;;;;;;5.07;3.90;;;38.20;34.30;;;;;;6129864;23;20427;-89
2022/05/20 13:18:04;;;;;;;8.30;4.73;;;37.40;34.30;;;;;;6133019;23;20409;-90
2022/05/20 13:20:35;;;;;;;8.30;4.07;;;37.70;34.20;;;;;;6134512;23;20474;-89
2022/05/20 13:23:07;;;;;;;5.27;3.63;;;37.90;34.50;;;;;;6132447;23;20416;-89
2022/05/20 13:25:34;;;;;;;7.63;3.90;;;38.10;33.70;;;;;;6132197;23;20435;-89
2022/05/20 13:28:00;;;;;;;6.93;4.50;;;38.10;33.00;;;;;;6144206;23;20411;-89
2022/05/20 13:30:34;;;;;;;5.80;3.90;;;38.60;33.90;;;;;;6134369;23;20414;-89
2022/05/20 13:33:03;;;;;;;5.93;3.60;;;39.60;32.20;;;;;;6130036;23;20494;-88
2022/05/20 13:35:30;;;;;;;4.87;3.70;;;39.20;32.20;;;;;;6132476;23;20434;-91
2022/05/20 13:37:59;;;;;;;6.07;4.17;;;38.40;32.50;;;;;;6131788;23;20411;-91
2022/05/20 13:40:33;;;;;;;5.50;4.50;;;38.00;32.90;;;;;;6134854;23;20486;-91
2022/05/20 13:43:03;;;;;;;4.60;3.43;;;37.50;33.50;;;;;;6134644;23;20471;-92
2022/05/20 13:51:09;;;;;;;4.57;3.87;;;36.00;35.30;;;;;;6138778;23;20378;-91
2022/05/20 13:53:37;;;;;;;5.90;4.10;;;37.20;34.30;;;;;;6136802;23;20478;-91
2022/05/20 13:56:07;;;;;;;6.67;4.13;;;37.10;33.30;;;;;;6134042;23;20418;-91